createdAt,value
2022-08-09T00:01:10.371Z,17.93
2022-08-09T00:04:10.861Z,17.83
2022-08-09T00:06:27.643Z,17.94
2022-08-09T00:08:57.540Z,17.93
2022-08-09T00:11:27.685Z,17.73
2022-08-09T00:14:11.462Z,17.72
2022-08-09T00:16:44.259Z,17.74
2022-08-09T00:19:11.144Z,17.77
2022-08-09T00:21:43.250Z,17.57
2022-08-09T00:24:22.912Z,17.57
2022-08-09T00:26:51.005Z,17.48
2022-08-09T00:30:09.989Z,17.48
2022-08-09T00:32:05.459Z,17.51
2022-08-09T00:34:32.702Z,17.48
2022-08-09T00:37:00.571Z,17.37
2022-08-09T00:40:13.629Z,17.44
2022-08-09T00:44:14.505Z,17.28
2022-08-09T00:45:00.108Z,17.31
2022-08-09T00:47:33.195Z,17.35
2022-08-09T00:50:06.930Z,17.23
2022-08-09T00:52:41.576Z,17.22
2022-08-09T00:55:09.049Z,17.17
2022-08-09T00:57:49.766Z,17.14
2022-08-09T01:00:21.029Z,17.10
2022-08-09T01:02:50.459Z,16.91
2022-08-09T01:05:53.968Z,16.78
2022-08-09T01:08:35.080Z,16.84
2022-08-09T01:11:17.722Z,16.70
2022-08-09T01:14:01.820Z,16.76
2022-08-09T01:16:47.210Z,16.61
2022-08-09T01:19:42.818Z,16.64
2022-08-09T01:22:36.130Z,16.69
2022-08-09T01:25:41.605Z,16.81
2022-08-09T01:28:11.405Z,16.85
2022-08-09T01:30:51.970Z,16.80
2022-08-09T01:33:22.628Z,16.76
2022-08-09T01:36:03.184Z,16.74
2022-08-09T01:38:34.767Z,16.78
2022-08-09T01:41:19.491Z,16.64
2022-08-09T01:43:55.239Z,16.70
2022-08-09T01:46:28.517Z,16.67
2022-08-09T01:48:59.800Z,16.66
2022-08-09T01:51:32.177Z,16.62
2022-08-09T01:54:01.647Z,16.57
2022-08-09T01:56:30.543Z,16.59
2022-08-09T01:59:01.303Z,16.52
2022-08-09T02:01:30.624Z,16.48
2022-08-09T02:04:17.536Z,16.56
2022-08-09T02:07:04.252Z,16.53
2022-08-09T02:09:42.197Z,16.54
2022-08-09T02:12:17.986Z,16.51
2022-08-09T02:14:52.286Z,16.47
2022-08-09T02:17:59.826Z,16.55
2022-08-09T02:20:15.928Z,16.48
2022-08-09T02:23:03.610Z,16.49
2022-08-09T02:25:42.693Z,16.51
2022-08-09T02:28:29.317Z,16.52
2022-08-09T02:31:03.262Z,16.51
2022-08-09T02:33:37.934Z,16.50
2022-08-09T02:36:33.775Z,16.45
2022-08-09T02:39:05.716Z,16.44
2022-08-09T02:42:03.987Z,16.37
2022-08-09T02:44:40.311Z,16.39
2022-08-09T02:47:11.214Z,16.35
2022-08-09T02:50:01.558Z,16.35
2022-08-09T02:52:36.525Z,16.26
2022-08-09T02:55:20.769Z,16.26
2022-08-09T02:58:00.331Z,16.23
2022-08-09T03:00:39.587Z,16.23
2022-08-09T03:04:13.104Z,16.24
2022-08-09T03:06:15.026Z,16.16
2022-08-09T03:08:46.152Z,16.26
2022-08-09T03:12:04.896Z,16.13
2022-08-09T03:14:08.308Z,16.21
2022-08-09T03:16:41.676Z,16.13
2022-08-09T03:19:16.699Z,16.11
2022-08-09T03:21:57.961Z,16.06
2022-08-09T03:24:31.717Z,16.04
2022-08-09T03:27:13.599Z,16.05
2022-08-09T03:30:01.120Z,16.06
2022-08-09T03:32:31.256Z,15.94
2022-08-09T03:34:59.328Z,15.86
2022-08-09T03:37:55.242Z,15.83
2022-08-09T03:40:13.684Z,15.83
2022-08-09T03:42:45.047Z,15.74
2022-08-09T03:45:11.914Z,15.75
2022-08-09T03:47:40.254Z,15.80
2022-08-09T03:50:14.184Z,15.73
2022-08-09T03:52:46.159Z,15.72
2022-08-09T03:55:14.381Z,15.65
2022-08-09T03:57:44.648Z,15.67
2022-08-09T04:00:26.128Z,15.77
2022-08-09T04:02:54.632Z,15.68
2022-08-09T04:05:27.421Z,15.65
2022-08-09T04:07:57.323Z,15.67
2022-08-09T04:10:29.555Z,15.59
2022-08-09T04:12:58.114Z,15.45
2022-08-09T04:15:38.785Z,15.64
2022-08-09T04:18:16.650Z,15.67
2022-08-09T04:20:45.526Z,15.64
2022-08-09T04:23:16.718Z,15.66
2022-08-09T04:25:44.555Z,15.67
2022-08-09T04:28:16.573Z,15.68
2022-08-09T04:31:00.070Z,15.65
2022-08-09T04:33:32.396Z,15.73
2022-08-09T04:36:14.389Z,15.83
2022-08-09T04:38:45.856Z,15.84
2022-08-09T04:41:14.119Z,15.91
2022-08-09T04:43:46.549Z,15.98
2022-08-09T04:46:37.856Z,16.06
2022-08-09T04:49:07.610Z,16.13
2022-08-09T04:51:35.426Z,16.20
2022-08-09T04:54:03.820Z,16.26
2022-08-09T04:56:30.522Z,16.30
2022-08-09T04:58:57.292Z,16.39
2022-08-09T05:01:23.752Z,16.45
2022-08-09T05:03:50.590Z,16.55
2022-08-09T05:06:27.892Z,16.70
2022-08-09T05:09:00.403Z,16.78
2022-08-09T05:11:32.325Z,16.83
2022-08-09T05:14:05.994Z,17.06
2022-08-09T05:16:33.963Z,17.19
2022-08-09T05:19:24.350Z,17.28
2022-08-09T05:21:55.416Z,17.44
2022-08-09T05:24:24.370Z,17.58
2022-08-09T05:26:51.354Z,17.78
2022-08-09T05:29:21.229Z,17.97
2022-08-09T05:31:56.761Z,18.15
2022-08-09T05:34:30.044Z,18.33
2022-08-09T05:37:05.009Z,18.62
2022-08-09T05:39:36.238Z,18.94
2022-08-09T05:42:09.193Z,19.09
2022-08-09T05:44:43.618Z,19.23
2022-08-09T05:47:10.074Z,19.38
2022-08-09T05:50:30.835Z,19.68
2022-08-09T05:52:24.746Z,19.90
2022-08-09T05:54:51.648Z,19.86
2022-08-09T05:57:19.209Z,20.02
2022-08-09T05:59:46.181Z,20.29
2022-08-09T06:02:16.924Z,20.27
2022-08-09T06:04:46.015Z,20.50
2022-08-09T06:07:21.690Z,20.54
2022-08-09T06:10:02.448Z,20.49
2022-08-09T06:12:30.073Z,20.78
2022-08-09T06:15:00.625Z,20.94
2022-08-09T06:17:39.175Z,21.04
2022-08-09T06:20:07.973Z,20.95
2022-08-09T06:22:35.316Z,21.09
2022-08-09T06:25:02.259Z,21.26
2022-08-09T06:27:42.312Z,21.18
2022-08-09T06:30:14.308Z,21.75
2022-08-09T06:33:00.184Z,21.74
2022-08-09T06:35:35.733Z,21.57
2022-08-09T06:38:16.802Z,21.60
2022-08-09T06:40:43.780Z,21.95
2022-08-09T06:43:11.434Z,22.10
2022-08-09T06:46:06.666Z,22.18
2022-08-09T06:48:30.759Z,22.53
2022-08-09T06:50:59.183Z,22.76
2022-08-09T06:53:25.691Z,22.90
2022-08-09T06:55:52.476Z,23.01
2022-08-09T06:58:40.590Z,23.28
2022-08-09T07:01:06.432Z,23.06
2022-08-09T07:03:39.604Z,23.65
2022-08-09T07:06:19.591Z,23.99
2022-08-09T07:08:46.916Z,23.99
2022-08-09T07:11:17.697Z,23.89
2022-08-09T07:14:04.382Z,23.73
2022-08-09T07:16:43.302Z,23.72
2022-08-09T07:19:18.770Z,24.08
2022-08-09T07:21:57.866Z,24.46
2022-08-09T07:24:40.696Z,24.18
2022-08-09T07:27:26.735Z,24.30
2022-08-09T07:29:58.927Z,24.55
2022-08-09T07:32:32.291Z,24.70
2022-08-09T07:35:00.827Z,24.36
2022-08-09T07:37:29.388Z,24.23
2022-08-09T07:39:56.153Z,24.26
2022-08-09T07:42:32.736Z,24.85
2022-08-09T07:45:02.584Z,24.88
2022-08-09T07:48:00.629Z,25.11
2022-08-09T07:50:34.970Z,25.21
2022-08-09T07:53:04.808Z,25.33
2022-08-09T07:55:41.293Z,25.08
2022-08-09T07:58:18.275Z,25.37
2022-08-09T08:00:56.212Z,25.17
2022-08-09T08:03:31.266Z,25.86
2022-08-09T08:05:58.577Z,25.92
2022-08-09T08:09:02.067Z,25.76
2022-08-09T08:12:11.272Z,26.57
2022-08-09T08:13:58.599Z,26.17
2022-08-09T08:16:29.502Z,26.28
2022-08-09T08:18:57.960Z,25.98
2022-08-09T08:21:25.157Z,26.56
2022-08-09T08:23:55.891Z,26.16
2022-08-09T08:26:26.519Z,26.01
2022-08-09T08:29:08.996Z,26.15
2022-08-09T08:32:02.387Z,25.63
2022-08-09T08:34:25.405Z,25.84
2022-08-09T08:36:52.379Z,25.66
2022-08-09T08:39:18.910Z,25.75
2022-08-09T08:41:51.958Z,26.32
2022-08-09T08:44:26.837Z,26.38
2022-08-09T08:46:59.633Z,26.56
2022-08-09T08:49:38.591Z,26.78
2022-08-09T08:52:50.360Z,26.54
2022-08-09T08:55:04.006Z,26.95
2022-08-09T08:57:34.861Z,27.07
2022-08-09T09:00:02.228Z,27.18
2022-08-09T09:02:31.944Z,26.87
2022-08-09T09:05:06.178Z,26.76
2022-08-09T09:07:42.731Z,26.71
2022-08-09T09:10:11.450Z,27.00
2022-08-09T09:12:38.442Z,26.82
2022-08-09T09:15:06.555Z,26.48
2022-08-09T09:17:49.057Z,26.86
2022-08-09T09:20:21.482Z,27.07
2022-08-09T09:23:02.065Z,26.75
2022-08-09T09:26:02.978Z,26.73
2022-08-09T09:28:39.118Z,26.75
2022-08-09T09:31:54.180Z,26.86
2022-08-09T09:34:15.331Z,27.25
2022-08-09T09:36:52.925Z,27.61
2022-08-09T09:39:42.622Z,27.60
2022-08-09T09:42:27.684Z,27.20
2022-08-09T09:44:59.477Z,27.41
2022-08-09T09:47:28.395Z,27.50
2022-08-09T09:50:14.405Z,27.35
2022-08-09T09:52:56.410Z,27.37
2022-08-09T09:55:32.175Z,27.63
2022-08-09T09:58:16.589Z,28.19
2022-08-09T10:00:52.718Z,27.49
2022-08-09T10:03:43.849Z,27.87
2022-08-09T10:06:12.662Z,28.24
2022-08-09T10:08:42.479Z,28.41
2022-08-09T10:11:54.009Z,29.06
2022-08-09T10:14:30.394Z,29.55
2022-08-09T10:17:05.207Z,29.37
2022-08-09T10:19:43.544Z,29.57
2022-08-09T10:22:12.572Z,30.28
2022-08-09T10:24:40.853Z,30.63
2022-08-09T10:27:17.319Z,30.27
2022-08-09T10:30:28.329Z,30.13
2022-08-09T10:32:42.837Z,31.19
2022-08-09T10:35:10.497Z,31.82
2022-08-09T10:37:40.090Z,30.40
2022-08-09T10:40:12.201Z,31.42
2022-08-09T10:42:56.034Z,30.50
2022-08-09T10:45:23.662Z,30.82
2022-08-09T10:48:26.416Z,30.64
2022-08-09T10:51:41.089Z,30.33
2022-08-09T10:54:12.195Z,30.26
2022-08-09T10:56:41.831Z,31.58
2022-08-09T10:59:43.393Z,31.23
2022-08-09T11:03:06.537Z,31.25
2022-08-09T11:05:30.233Z,30.97
2022-08-09T11:07:59.330Z,30.69
2022-08-09T11:10:47.138Z,30.48
2022-08-09T11:13:49.106Z,31.04
2022-08-09T11:16:35.257Z,30.28
2022-08-09T11:19:09.309Z,30.97
2022-08-09T11:21:55.158Z,31.60
2022-08-09T11:24:25.085Z,31.50
2022-08-09T11:26:54.655Z,32.32
2022-08-09T11:30:04.721Z,31.64
2022-08-09T11:32:40.915Z,31.26
2022-08-09T11:35:34.883Z,30.88
2022-08-09T11:38:22.222Z,31.58
2022-08-09T11:40:52.968Z,31.99
2022-08-09T11:43:32.364Z,31.81
2022-08-09T11:46:01.124Z,30.95
2022-08-09T11:48:30.360Z,31.67
2022-08-09T11:52:48.909Z,31.03
2022-08-09T11:54:27.808Z,31.94
2022-08-09T11:57:47.685Z,31.80
2022-08-09T12:00:27.593Z,31.99
2022-08-09T12:02:55.898Z,31.61
2022-08-09T12:05:23.327Z,31.87
2022-08-09T12:07:50.156Z,32.80
2022-08-09T12:10:39.746Z,32.71
2022-08-09T12:14:07.874Z,32.77
2022-08-09T12:15:59.843Z,33.05
2022-08-09T12:18:33.371Z,32.41
2022-08-09T12:21:02.994Z,32.66
2022-08-09T12:23:56.619Z,31.75
2022-08-09T12:26:25.505Z,31.80
2022-08-09T12:29:00.356Z,32.16
2022-08-09T12:32:02.489Z,31.10
2022-08-09T12:34:39.799Z,30.95
2022-08-09T12:37:21.646Z,31.51
2022-08-09T12:40:11.577Z,30.91
2022-08-09T12:42:44.035Z,31.61
2022-08-09T12:45:34.030Z,32.20
2022-08-09T12:47:58.871Z,32.62
2022-08-09T12:50:25.578Z,32.13
2022-08-09T12:53:08.497Z,32.01
2022-08-09T12:56:12.411Z,32.00
2022-08-09T12:58:28.025Z,31.49
2022-08-09T13:00:56.022Z,32.51
2022-08-09T13:03:53.417Z,31.56
2022-08-09T13:06:33.848Z,32.48
2022-08-09T13:09:06.278Z,32.05
2022-08-09T13:11:44.347Z,31.94
2022-08-09T13:14:41.063Z,31.87
2022-08-09T13:17:43.814Z,31.27
2022-08-09T13:20:14.353Z,30.96
2022-08-09T13:23:06.011Z,31.10
2022-08-09T13:25:52.924Z,30.52
2022-08-09T13:28:34.561Z,30.86
2022-08-09T13:32:15.427Z,30.94
2022-08-09T13:33:57.298Z,30.73
2022-08-09T13:36:40.510Z,30.58
2022-08-09T13:41:20.893Z,30.98
2022-08-09T13:42:11.033Z,30.90
2022-08-09T13:44:42.602Z,31.02
2022-08-09T13:47:33.768Z,30.70
2022-08-09T13:50:18.011Z,30.68
2022-08-09T13:52:57.376Z,30.42
2022-08-09T13:55:24.338Z,30.51
2022-08-09T13:57:58.343Z,30.64
2022-08-09T14:00:28.561Z,30.23
2022-08-09T14:03:03.277Z,30.62
2022-08-09T14:05:57.221Z,30.14
2022-08-09T14:08:28.396Z,30.00
2022-08-09T14:10:56.015Z,29.80
2022-08-09T14:14:15.565Z,29.87
2022-08-09T14:16:16.230Z,30.22
2022-08-09T14:18:49.823Z,29.83
2022-08-09T14:21:23.099Z,29.81
2022-08-09T14:23:54.642Z,29.59
2022-08-09T14:26:30.208Z,29.62
2022-08-09T14:29:02.800Z,30.03
2022-08-09T14:31:35.779Z,29.96
2022-08-09T14:34:17.678Z,30.17
2022-08-09T14:36:58.766Z,30.07
2022-08-09T14:39:45.421Z,29.94
2022-08-09T14:42:12.299Z,29.92
2022-08-09T14:44:48.966Z,30.16
2022-08-09T14:47:39.856Z,29.84
2022-08-09T14:50:12.554Z,29.77
2022-08-09T14:52:43.017Z,29.63
2022-08-09T14:55:10.038Z,29.80
2022-08-09T14:57:43.583Z,29.78
2022-08-09T15:00:11.521Z,29.87
2022-08-09T15:02:38.646Z,29.92
2022-08-09T15:05:07.298Z,30.11
2022-08-09T15:07:35.457Z,30.25
2022-08-09T15:10:10.945Z,30.00
2022-08-09T15:12:40.737Z,29.85
2022-08-09T15:15:13.016Z,30.22
2022-08-09T15:17:41.959Z,30.02
2022-08-09T15:21:53.584Z,29.60
2022-08-09T15:23:02.935Z,29.87
2022-08-09T15:25:45.415Z,29.84
2022-08-09T15:28:26.306Z,29.86
2022-08-09T15:31:08.643Z,29.94
2022-08-09T15:34:32.206Z,30.17
2022-08-09T15:36:28.673Z,30.10
2022-08-09T15:39:00.186Z,29.90
2022-08-09T15:41:31.460Z,29.82
2022-08-09T15:43:58.539Z,29.77
2022-08-09T15:46:32.271Z,29.92
2022-08-09T15:49:22.704Z,29.99
2022-08-09T15:52:03.112Z,29.96
2022-08-09T15:54:52.514Z,30.02
2022-08-09T15:57:34.066Z,30.24
2022-08-09T16:00:17.081Z,29.81
2022-08-09T16:02:54.650Z,29.63
2022-08-09T16:05:23.455Z,29.88
2022-08-09T16:07:50.694Z,29.76
2022-08-09T16:10:38.517Z,29.86
2022-08-09T16:13:21.226Z,29.68
2022-08-09T16:16:04.742Z,29.97
2022-08-09T16:18:44.750Z,29.71
2022-08-09T16:21:12.367Z,29.74
2022-08-09T16:23:50.772Z,29.42
2022-08-09T16:26:33.485Z,29.62
2022-08-09T16:29:01.684Z,29.47
2022-08-09T16:31:37.952Z,29.27
2022-08-09T16:34:24.103Z,29.29
2022-08-09T16:36:50.632Z,29.37
2022-08-09T16:39:17.379Z,29.26
2022-08-09T16:42:03.662Z,29.27
2022-08-09T16:44:31.764Z,29.47
2022-08-09T16:47:01.803Z,29.24
2022-08-09T16:50:33.099Z,29.16
2022-08-09T16:52:17.719Z,29.16
2022-08-09T16:54:45.750Z,29.02
2022-08-09T16:57:21.202Z,28.97
2022-08-09T16:59:50.299Z,28.93
2022-08-09T17:02:25.609Z,28.77
2022-08-09T17:04:52.706Z,28.34
2022-08-09T17:08:43.597Z,28.92
2022-08-09T17:10:09.006Z,29.01
2022-08-09T17:12:37.952Z,29.07
2022-08-09T17:15:30.499Z,28.98
2022-08-09T17:17:51.612Z,28.61
2022-08-09T17:20:30.312Z,28.57
2022-08-09T17:23:05.815Z,28.52
2022-08-09T17:25:37.580Z,28.46
2022-08-09T17:28:06.752Z,28.52
2022-08-09T17:30:34.472Z,28.67
2022-08-09T17:33:22.052Z,28.31
2022-08-09T17:35:50.036Z,28.30
2022-08-09T17:38:29.279Z,28.27
2022-08-09T17:41:00.555Z,28.03
2022-08-09T17:43:34.558Z,27.92
2022-08-09T17:46:08.946Z,27.93
2022-08-09T17:48:51.557Z,27.91
2022-08-09T17:51:20.047Z,27.84
2022-08-09T17:53:53.470Z,27.93
2022-08-09T17:56:27.543Z,27.85
2022-08-09T17:58:57.037Z,27.64
2022-08-09T18:01:24.008Z,27.73
2022-08-09T18:03:54.475Z,27.41
2022-08-09T18:06:30.904Z,27.34
2022-08-09T18:09:03.781Z,27.44
2022-08-09T18:12:04.917Z,27.13
2022-08-09T18:14:23.848Z,27.37
2022-08-09T18:16:52.911Z,27.25
2022-08-09T18:20:57.445Z,27.09
2022-08-09T18:22:13.137Z,27.02
2022-08-09T18:24:43.465Z,27.00
2022-08-09T18:27:14.176Z,26.99
2022-08-09T18:30:42.517Z,26.93
2022-08-09T18:32:47.884Z,26.77
2022-08-09T18:35:47.965Z,26.72
2022-08-09T18:38:08.357Z,26.45
2022-08-09T18:40:35.340Z,26.65
2022-08-09T18:43:03.849Z,26.60
2022-08-09T18:46:46.515Z,26.49
2022-08-09T18:48:17.861Z,26.39
2022-08-09T18:50:44.550Z,26.37
2022-08-09T18:53:13.386Z,26.29
2022-08-09T18:55:40.220Z,26.09
2022-08-09T18:58:32.082Z,26.21
2022-08-09T19:01:00.288Z,26.10
2022-08-09T19:03:27.197Z,25.94
2022-08-09T19:06:03.307Z,25.87
2022-08-09T19:08:30.809Z,25.80
2022-08-09T19:10:57.291Z,25.74
2022-08-09T19:13:50.003Z,25.74
2022-08-09T19:16:10.363Z,25.77
2022-08-09T19:18:45.282Z,25.76
2022-08-09T19:21:12.269Z,25.74
2022-08-09T19:24:36.304Z,25.54
2022-08-09T19:26:32.564Z,25.54
2022-08-09T19:29:03.439Z,25.47
2022-08-09T19:31:45.053Z,25.45
2022-08-09T19:34:21.650Z,25.19
2022-08-09T19:36:51.513Z,25.25
2022-08-09T19:39:20.861Z,25.18
2022-08-09T19:41:56.791Z,25.28
2022-08-09T19:44:23.531Z,25.12
2022-08-09T19:46:53.264Z,25.03
2022-08-09T19:50:06.716Z,24.84
2022-08-09T19:52:08.471Z,24.93
2022-08-09T19:54:35.072Z,24.96
2022-08-09T19:57:02.182Z,24.96
2022-08-09T19:59:57.602Z,24.75
2022-08-09T20:04:11.625Z,24.50
2022-08-09T20:05:10.134Z,24.57
2022-08-09T20:07:59.644Z,24.50
2022-08-09T20:10:34.938Z,24.61
2022-08-09T20:13:06.320Z,24.48
2022-08-09T20:16:34.395Z,24.42
2022-08-09T20:18:22.422Z,24.50
2022-08-09T20:20:50.316Z,24.45
2022-08-09T20:23:23.028Z,24.42
2022-08-09T20:25:52.244Z,24.30
2022-08-09T20:28:32.041Z,24.21
2022-08-09T20:31:04.546Z,23.99
2022-08-09T20:33:41.094Z,24.12
2022-08-09T20:36:10.670Z,24.11
2022-08-09T20:41:32.548Z,23.91
2022-08-09T20:44:02.295Z,23.88
2022-08-09T20:46:34.049Z,24.04
2022-08-09T20:49:11.431Z,23.78
2022-08-09T20:51:41.440Z,23.72
2022-08-09T20:54:12.661Z,23.78
2022-08-09T20:56:43.680Z,23.67
2022-08-09T20:59:16.829Z,23.76
2022-08-09T21:01:50.501Z,23.72
2022-08-09T21:05:57.644Z,23.61
2022-08-09T21:07:11.328Z,23.59
2022-08-09T21:09:45.191Z,23.57
2022-08-09T21:14:41.940Z,23.40
2022-08-09T21:18:22.111Z,23.52
2022-08-09T21:20:17.072Z,23.32
2022-08-09T21:22:46.817Z,23.30
2022-08-09T21:25:38.248Z,23.27
2022-08-09T21:28:07.131Z,23.26
2022-08-09T21:30:34.439Z,23.25
2022-08-09T21:33:06.871Z,23.18
2022-08-09T21:35:40.519Z,23.19
2022-08-09T21:38:21.094Z,23.08
2022-08-09T21:40:58.978Z,22.99
2022-08-09T21:43:57.116Z,22.94
2022-08-09T21:46:12.793Z,22.89
2022-08-09T21:48:42.716Z,22.83
2022-08-09T21:51:24.207Z,22.84
2022-08-09T21:54:02.556Z,22.74
2022-08-09T21:56:42.948Z,22.66
2022-08-09T21:59:11.499Z,22.60
2022-08-09T22:02:00.307Z,22.57
2022-08-09T22:04:54.997Z,22.41
2022-08-09T22:07:23.420Z,22.38
2022-08-09T22:10:01.527Z,22.29
2022-08-09T22:12:30.811Z,22.13
2022-08-09T22:14:58.834Z,22.20
2022-08-09T22:17:25.811Z,21.97
2022-08-09T22:19:59.869Z,22.06
2022-08-09T22:22:28.808Z,22.12
2022-08-09T22:26:04.416Z,21.90
2022-08-09T22:27:42.366Z,21.99
2022-08-09T22:30:10.026Z,21.95
2022-08-09T22:32:37.426Z,21.84
2022-08-09T22:35:06.984Z,21.79
2022-08-09T22:38:07.045Z,21.89
2022-08-09T22:40:34.327Z,21.66
2022-08-09T22:43:00.929Z,21.60
2022-08-09T22:48:11.356Z,21.59
2022-08-09T22:48:35.962Z,21.55
2022-08-09T22:51:10.707Z,21.52
2022-08-09T22:53:58.727Z,21.51
2022-08-09T22:56:33.944Z,21.37
2022-08-09T22:59:06.069Z,21.47
2022-08-09T23:01:52.153Z,21.50
2022-08-09T23:04:19.015Z,21.39
2022-08-09T23:07:11.119Z,21.46
2022-08-09T23:09:40.506Z,21.42
2022-08-09T23:12:07.240Z,21.20
2022-08-09T23:14:37.481Z,21.18
2022-08-09T23:17:09.452Z,21.22
2022-08-09T23:20:07.369Z,21.21
2022-08-09T23:22:22.598Z,21.14
2022-08-09T23:24:49.410Z,21.13
2022-08-09T23:27:15.942Z,20.93
2022-08-09T23:29:42.870Z,20.75
2022-08-09T23:32:09.481Z,20.70
2022-08-09T23:34:36.769Z,20.66
2022-08-09T23:37:04.540Z,20.59
2022-08-09T23:39:31.285Z,20.52
2022-08-09T23:41:57.870Z,20.51
2022-08-09T23:44:24.548Z,20.47
2022-08-09T23:46:52.874Z,20.41
2022-08-09T23:49:25.252Z,20.45
2022-08-09T23:51:52.626Z,20.36
2022-08-09T23:54:19.840Z,20.29
2022-08-09T23:56:54.756Z,20.21
2022-08-09T23:59:24.098Z,20.23
